Terminal Aerodrome Forecast
Issued by NWS

Home | Current Version | Previous Version | Text Only | Print | Product List | Glossary On
Versions: 1 2 3 4 5 6 7 8 9 10 11 12 13 14 15 16 17 18 19 20
000
FTUS41 KCAR 301121
TAFHUL
TAF
KHUL 301121Z 3012/3112 19005KT 3SM BR BKN008
     FM301300 19008KT 6SM BR SCT015
     FM301500 20011KT P6SM SCT035
     FM302300 20013KT P6SM VCSH BKN040
     FM310400 21011KT 5SM SHRA OVC022
     FM310700 24008KT 2SM RA BR OVC008=

USA.gov is the U.S. government's official web portal to all federal, state and local government web resources and services.